createdAt,value
2022-08-07T00:00:29.954Z,100132.00
2022-08-07T00:01:44.471Z,100125.37
2022-08-07T00:02:44.156Z,100134.39
2022-08-07T00:03:47.358Z,100129.31
2022-08-07T00:04:45.368Z,100130.22
2022-08-07T00:05:48.156Z,100137.91
2022-08-07T00:06:52.421Z,100132.22
2022-08-07T00:07:59.729Z,100132.45
2022-08-07T00:08:59.627Z,100129.20
2022-08-07T00:10:25.653Z,100128.81
2022-08-07T00:11:09.244Z,100130.83
2022-08-07T00:12:15.250Z,100128.67
2022-08-07T00:13:24.019Z,100133.75
2022-08-07T00:14:25.339Z,100122.45
2022-08-07T00:15:38.170Z,100126.70
2022-08-07T00:16:36.970Z,100133.06
2022-08-07T00:17:41.280Z,100134.62
2022-08-07T00:18:43.664Z,100111.08
2022-08-07T00:20:01.577Z,100128.93
2022-08-07T00:22:05.717Z,100120.95
2022-08-07T00:23:09.237Z,100123.80
2022-08-07T00:24:12.110Z,100132.56
2022-08-07T00:25:16.587Z,100127.79
2022-08-07T00:26:48.668Z,100124.48
2022-08-07T00:27:23.274Z,100130.86
2022-08-07T00:28:33.288Z,100133.75
2022-08-07T00:29:33.826Z,100138.75
2022-08-07T00:30:38.163Z,100131.28
2022-08-07T00:31:41.502Z,100133.52
2022-08-07T00:32:47.151Z,100135.22
2022-08-07T00:33:49.603Z,100133.42
2022-08-07T00:34:52.122Z,100133.42
2022-08-07T00:35:56.032Z,100139.80
2022-08-07T00:36:58.714Z,100136.17
2022-08-07T00:38:01.900Z,100136.09
2022-08-07T00:39:04.241Z,100139.16
2022-08-07T00:40:07.671Z,100137.45
2022-08-07T00:41:14.729Z,100132.08
2022-08-07T00:42:17.451Z,100133.78
2022-08-07T00:44:01.991Z,100141.31
2022-08-07T00:44:24.491Z,100138.01
2022-08-07T00:45:28.762Z,100133.45
2022-08-07T00:46:34.204Z,100132.43
2022-08-07T00:48:10.301Z,100139.52
2022-08-07T00:48:42.416Z,100142.06
2022-08-07T00:50:21.093Z,100143.44
2022-08-07T00:50:51.577Z,100135.22
2022-08-07T00:51:57.019Z,100138.63
2022-08-07T00:52:57.629Z,100144.98
2022-08-07T00:53:59.985Z,100147.68
2022-08-07T00:55:04.605Z,100142.59
2022-08-07T00:56:13.818Z,100139.52
2022-08-07T00:57:12.505Z,100140.45
2022-08-07T00:58:14.859Z,100144.08
2022-08-07T00:59:35.595Z,100144.55
2022-08-07T01:00:25.160Z,100149.78
2022-08-07T01:01:28.009Z,100143.93
2022-08-07T01:02:30.729Z,100149.16
2022-08-07T01:03:57.202Z,100150.17
2022-08-07T01:04:43.490Z,100158.64
2022-08-07T01:05:51.693Z,100154.97
2022-08-07T01:06:49.724Z,100148.86
2022-08-07T01:07:52.342Z,100151.70
2022-08-07T01:08:55.645Z,100153.26
2022-08-07T01:10:05.935Z,100145.73
2022-08-07T01:11:23.666Z,100156.48
2022-08-07T01:12:28.680Z,100133.89
2022-08-07T01:13:12.000Z,100150.86
2022-08-07T01:14:16.736Z,100147.05
2022-08-07T01:15:19.792Z,100154.81
2022-08-07T01:16:30.333Z,100156.05
2022-08-07T01:17:27.936Z,100159.42
2022-08-07T01:18:31.385Z,100154.64
2022-08-07T01:19:34.751Z,100159.33
2022-08-07T01:20:43.286Z,100161.87
2022-08-07T01:21:48.814Z,100161.33
2022-08-07T01:23:00.459Z,100160.49
2022-08-07T01:23:57.009Z,100157.23
2022-08-07T01:25:00.311Z,100165.59
2022-08-07T01:26:05.867Z,100157.99
2022-08-07T01:27:19.858Z,100163.05
2022-08-07T01:28:13.635Z,100160.83
2022-08-07T01:29:15.978Z,100157.41
2022-08-07T01:30:19.282Z,100161.12
2022-08-07T01:31:21.939Z,100170.17
2022-08-07T01:32:25.335Z,100154.38
2022-08-07T01:33:30.120Z,100154.38
2022-08-07T01:34:34.412Z,100163.70
2022-08-07T01:35:52.770Z,100165.13
2022-08-07T01:36:41.050Z,100157.46
2022-08-07T01:37:45.369Z,100158.59
2022-08-07T01:38:47.969Z,100162.95
2022-08-07T01:39:50.440Z,100156.88
2022-08-07T01:40:56.348Z,100160.26
2022-08-07T01:42:36.931Z,100155.61
2022-08-07T01:43:03.348Z,100158.00
2022-08-07T01:44:06.374Z,100160.55
2022-08-07T01:45:17.740Z,100163.96
2022-08-07T01:46:16.603Z,100154.05
2022-08-07T01:48:17.647Z,100157.56
2022-08-07T01:48:30.140Z,100154.92
2022-08-07T01:49:32.009Z,100159.16
2022-08-07T01:52:04.299Z,100157.78
2022-08-07T01:52:55.222Z,100160.11
2022-08-07T01:54:09.999Z,100160.25
2022-08-07T01:55:06.586Z,100159.09
2022-08-07T01:56:12.877Z,100156.41
2022-08-07T01:57:24.981Z,100158.50
2022-08-07T01:58:33.120Z,100156.25
2022-08-07T01:59:48.520Z,100154.95
2022-08-07T02:00:57.965Z,100159.20
2022-08-07T02:02:04.453Z,100153.09
2022-08-07T02:03:21.406Z,100158.19
2022-08-07T02:04:30.339Z,100151.83
2022-08-07T02:05:47.697Z,100154.14
2022-08-07T02:06:46.749Z,100152.29
2022-08-07T02:07:52.929Z,100146.48
2022-08-07T02:08:58.161Z,100153.85
2022-08-07T02:10:01.639Z,100149.03
2022-08-07T02:11:04.635Z,100152.63
2022-08-07T02:12:10.293Z,100154.19
2022-08-07T02:13:16.769Z,100156.41
2022-08-07T02:14:36.056Z,100163.18
2022-08-07T02:15:28.459Z,100154.40
2022-08-07T02:16:33.639Z,100157.80
2022-08-07T02:17:37.835Z,100153.24
2022-08-07T02:18:47.084Z,100157.34
2022-08-07T02:20:06.880Z,100155.35
2022-08-07T02:20:55.870Z,100160.03
2022-08-07T02:22:01.140Z,100158.19
2022-08-07T02:23:06.955Z,100159.31
2022-08-07T02:24:10.441Z,100161.94
2022-08-07T02:25:18.356Z,100157.23
2022-08-07T02:26:32.698Z,100159.09
2022-08-07T02:27:34.263Z,100162.34
2022-08-07T02:28:35.865Z,100162.89
2022-08-07T02:29:48.710Z,100160.61
2022-08-07T02:30:45.836Z,100158.06
2022-08-07T02:31:50.976Z,100163.73
2022-08-07T02:33:03.982Z,100159.77
2022-08-07T02:34:11.323Z,100165.30
2022-08-07T02:35:10.831Z,100158.94
2022-08-07T02:36:28.478Z,100156.39
2022-08-07T02:37:21.618Z,100155.23
2022-08-07T02:38:28.104Z,100154.95
2022-08-07T02:39:42.889Z,100152.95
2022-08-07T02:40:38.147Z,100159.53
2022-08-07T02:41:41.004Z,100161.19
2022-08-07T02:42:46.260Z,100165.87
2022-08-07T02:43:49.538Z,100154.45
2022-08-07T02:44:53.085Z,100164.89
2022-08-07T02:46:01.789Z,100175.05
2022-08-07T02:47:03.538Z,100167.41
2022-08-07T02:48:10.048Z,100171.48
2022-08-07T02:49:10.408Z,100166.94
2022-08-07T02:50:15.825Z,100132.91
2022-08-07T02:51:41.959Z,100166.73
2022-08-07T02:52:37.580Z,100137.75
2022-08-07T02:53:44.650Z,100175.06
2022-08-07T02:54:49.963Z,100176.45
2022-08-07T02:56:04.225Z,100166.39
2022-08-07T02:57:02.939Z,100174.74
2022-08-07T02:58:13.170Z,100167.84
2022-08-07T02:59:18.514Z,100169.69
2022-08-07T03:00:23.641Z,100170.95
2022-08-07T03:01:36.106Z,100168.27
2022-08-07T03:02:33.409Z,100165.72
2022-08-07T03:03:48.967Z,100167.00
2022-08-07T03:04:45.693Z,100169.69
2022-08-07T03:05:50.782Z,100165.87
2022-08-07T03:06:56.252Z,100167.98
2022-08-07T03:08:05.272Z,100165.98
2022-08-07T03:09:05.376Z,100174.19
2022-08-07T03:10:09.572Z,100166.56
2022-08-07T03:11:12.202Z,100166.13
2022-08-07T03:12:22.617Z,100178.48
2022-08-07T03:13:20.862Z,100174.34
2022-08-07T03:14:23.954Z,100177.88
2022-08-07T03:15:54.099Z,100178.77
2022-08-07T03:16:35.284Z,100169.69
2022-08-07T03:17:53.426Z,100169.69
2022-08-07T03:18:44.117Z,100170.09
2022-08-07T03:19:54.609Z,100167.73
2022-08-07T03:20:52.438Z,100170.95
2022-08-07T03:21:56.457Z,100174.78
2022-08-07T03:23:00.702Z,100170.00
2022-08-07T03:24:19.790Z,100175.06
2022-08-07T03:25:10.433Z,100169.37
2022-08-07T03:26:23.392Z,100171.19
2022-08-07T03:27:30.815Z,100172.06
2022-08-07T03:28:37.032Z,100175.58
2022-08-07T03:29:37.732Z,100173.98
2022-08-07T03:30:41.979Z,100176.83
2022-08-07T03:31:46.356Z,100181.07
2022-08-07T03:32:59.312Z,100174.72
2022-08-07T03:34:00.710Z,100170.72
2022-08-07T03:35:18.113Z,100170.72
2022-08-07T03:36:12.200Z,100170.46
2022-08-07T03:37:17.747Z,100174.42
2022-08-07T03:38:29.592Z,100178.78
2022-08-07T03:39:46.366Z,100174.12
2022-08-07T03:40:36.319Z,100175.55
2022-08-07T03:41:42.232Z,100182.63
2022-08-07T03:42:42.573Z,100174.42
2022-08-07T03:43:57.251Z,100183.72
2022-08-07T03:44:53.496Z,100175.80
2022-08-07T03:45:56.314Z,100178.05
2022-08-07T03:47:11.202Z,100184.12
2022-08-07T03:48:04.632Z,100182.84
2022-08-07T03:49:09.655Z,100180.84
2022-08-07T03:50:15.335Z,100178.40
2022-08-07T03:51:22.362Z,100181.95
2022-08-07T03:52:28.030Z,100178.50
2022-08-07T03:54:05.419Z,100184.45
2022-08-07T03:54:54.320Z,100180.74
2022-08-07T03:55:57.835Z,100181.76
2022-08-07T03:57:03.523Z,100181.47
2022-08-07T03:58:34.045Z,100185.23
2022-08-07T03:59:09.436Z,100180.69
2022-08-07T04:00:02.523Z,100181.86
2022-08-07T04:01:11.231Z,100187.47
2022-08-07T04:02:13.201Z,100182.09
2022-08-07T04:03:17.833Z,100183.02
2022-08-07T04:04:21.225Z,100176.35
2022-08-07T04:05:39.865Z,100179.73
2022-08-07T04:06:37.500Z,100183.14
2022-08-07T04:07:41.693Z,100187.03
2022-08-07T04:08:41.115Z,100183.65
2022-08-07T04:09:50.229Z,100192.47
2022-08-07T04:12:15.599Z,100188.02
2022-08-07T04:12:27.547Z,100189.72
2022-08-07T04:13:04.658Z,100189.27
2022-08-07T04:14:09.873Z,100186.05
2022-08-07T04:15:13.105Z,100183.59
2022-08-07T04:16:30.091Z,100191.09
2022-08-07T04:17:22.031Z,100184.66
2022-08-07T04:18:57.825Z,100190.58
2022-08-07T04:19:51.009Z,100194.67
2022-08-07T04:20:35.130Z,100184.17
2022-08-07T04:21:38.250Z,100188.12
2022-08-07T04:22:53.607Z,100182.66
2022-08-07T04:24:01.944Z,100187.95
2022-08-07T04:24:52.812Z,100186.33
2022-08-07T04:25:56.921Z,100189.33
2022-08-07T04:27:00.192Z,100180.39
2022-08-07T04:28:05.839Z,100185.47
2022-08-07T04:29:11.045Z,100179.98
2022-08-07T04:30:21.297Z,100183.08
2022-08-07T04:31:38.796Z,100185.59
2022-08-07T04:32:27.239Z,100187.71
2022-08-07T04:33:31.463Z,100181.05
2022-08-07T04:34:36.587Z,100186.17
2022-08-07T04:35:41.005Z,100186.17
2022-08-07T04:36:44.085Z,100193.36
2022-08-07T04:38:02.769Z,100192.60
2022-08-07T04:38:52.395Z,100191.48
2022-08-07T04:39:55.714Z,100195.53
2022-08-07T04:41:00.190Z,100191.19
2022-08-07T04:42:03.875Z,100180.40
2022-08-07T04:43:06.446Z,100192.63
2022-08-07T04:44:12.929Z,100187.22
2022-08-07T04:45:17.727Z,100186.75
2022-08-07T04:46:34.228Z,100189.50
2022-08-07T04:49:14.877Z,100183.97
2022-08-07T04:50:17.345Z,100184.84
2022-08-07T04:51:27.281Z,100179.45
2022-08-07T04:52:46.740Z,100184.35
2022-08-07T04:54:06.680Z,100180.95
2022-08-07T04:55:15.354Z,100184.97
2022-08-07T04:58:16.823Z,100189.02
2022-08-07T05:00:11.430Z,100179.02
2022-08-07T05:00:45.843Z,100180.37
2022-08-07T05:01:55.613Z,100185.83
2022-08-07T05:03:38.842Z,100187.03
2022-08-07T05:04:43.904Z,100187.08
2022-08-07T05:06:19.363Z,100181.66
2022-08-07T05:07:21.135Z,100177.56
2022-08-07T05:08:59.503Z,100186.84
2022-08-07T05:09:45.575Z,100185.20
2022-08-07T05:10:58.416Z,100184.69
2022-08-07T05:12:02.496Z,100191.05
2022-08-07T05:14:52.590Z,100189.06
2022-08-07T05:14:53.407Z,100196.76
2022-08-07T05:15:41.653Z,100190.52
2022-08-07T05:16:46.611Z,100193.97
2022-08-07T05:17:57.435Z,100196.86
2022-08-07T05:20:19.606Z,100185.89
2022-08-07T05:21:59.864Z,100188.11
2022-08-07T05:22:32.829Z,100186.73
2022-08-07T05:23:43.656Z,100191.69
2022-08-07T05:24:50.404Z,100184.02
2022-08-07T05:26:13.448Z,100191.42
2022-08-07T05:26:59.989Z,100183.83
2022-08-07T05:28:20.776Z,100186.66
2022-08-07T05:29:12.793Z,100181.80
2022-08-07T05:30:21.175Z,100194.80
2022-08-07T05:31:25.021Z,100192.10
2022-08-07T05:32:31.055Z,100192.23
2022-08-07T05:33:36.858Z,100191.33
2022-08-07T05:34:41.220Z,100191.58
2022-08-07T05:35:45.320Z,100198.05
2022-08-07T05:36:52.963Z,100191.47
2022-08-07T05:38:08.581Z,100198.91
2022-08-07T05:40:05.509Z,100198.52
2022-08-07T05:40:17.801Z,100195.20
2022-08-07T05:41:17.002Z,100189.50
2022-08-07T05:42:33.393Z,100197.66
2022-08-07T05:43:49.905Z,100193.74
2022-08-07T05:44:29.887Z,100193.83
2022-08-07T05:45:47.731Z,100193.31
2022-08-07T05:46:38.039Z,100191.61
2022-08-07T05:48:01.407Z,100186.17
2022-08-07T05:48:57.986Z,100193.74
2022-08-07T05:49:51.632Z,100195.99
2022-08-07T05:50:55.613Z,100197.33
2022-08-07T05:51:57.951Z,100197.58
2022-08-07T05:53:01.630Z,100196.70
2022-08-07T05:54:12.677Z,100196.70
2022-08-07T05:55:10.857Z,100193.53
2022-08-07T05:56:16.170Z,100201.34
2022-08-07T05:57:20.337Z,100196.90
2022-08-07T05:58:36.929Z,100198.45
2022-08-07T05:59:56.047Z,100193.45
2022-08-07T06:00:38.404Z,100199.20
2022-08-07T06:01:44.534Z,100201.95
2022-08-07T06:02:51.017Z,100201.12
2022-08-07T06:03:58.988Z,100201.94
2022-08-07T06:05:08.097Z,100190.63
2022-08-07T06:06:12.705Z,100199.89
2022-08-07T06:07:22.698Z,100193.56
2022-08-07T06:08:30.951Z,100201.55
2022-08-07T06:09:45.083Z,100191.09
2022-08-07T06:10:31.270Z,100197.41
2022-08-07T06:11:34.522Z,100200.53
2022-08-07T06:12:36.938Z,100194.66
2022-08-07T06:14:12.888Z,100202.84
2022-08-07T06:14:49.532Z,100204.71
2022-08-07T06:15:51.764Z,100209.57
2022-08-07T06:16:56.024Z,100205.36
2022-08-07T06:17:58.965Z,100202.01
2022-08-07T06:19:03.170Z,100199.27
2022-08-07T06:20:12.265Z,100202.23
2022-08-07T06:22:16.874Z,100203.91
2022-08-07T06:22:24.046Z,100210.41
2022-08-07T06:24:37.478Z,100201.78
2022-08-07T06:24:38.625Z,100205.81
2022-08-07T06:25:36.112Z,100202.79
2022-08-07T06:26:40.272Z,100194.86
2022-08-07T06:28:01.004Z,100199.30
2022-08-07T06:30:05.195Z,100207.91
2022-08-07T06:31:09.162Z,100203.30
2022-08-07T06:32:13.332Z,100208.34
2022-08-07T06:33:16.650Z,100197.38
2022-08-07T06:34:19.526Z,100206.84
2022-08-07T06:35:23.026Z,100200.14
2022-08-07T06:36:27.471Z,100205.36
2022-08-07T06:37:43.407Z,100208.72
2022-08-07T06:38:35.869Z,100203.22
2022-08-07T06:40:17.844Z,100201.55
2022-08-07T06:40:48.991Z,100206.12
2022-08-07T06:42:03.800Z,100205.69
2022-08-07T06:43:21.062Z,100202.09
2022-08-07T06:44:16.321Z,100205.36
2022-08-07T06:45:22.124Z,100198.59
2022-08-07T06:46:35.031Z,100204.15
2022-08-07T06:47:48.257Z,100201.41
2022-08-07T06:48:35.352Z,100211.03
2022-08-07T06:49:51.470Z,100204.50
2022-08-07T06:50:47.814Z,100203.38
2022-08-07T06:51:50.245Z,100206.30
2022-08-07T06:52:55.773Z,100206.84
2022-08-07T06:55:29.297Z,100198.07
2022-08-07T06:55:31.568Z,100203.28
2022-08-07T06:56:15.028Z,100203.64
2022-08-07T06:57:20.377Z,100195.67
2022-08-07T06:58:27.666Z,100200.10
2022-08-07T07:00:13.789Z,100198.13
2022-08-07T07:00:42.331Z,100198.20
2022-08-07T07:01:48.893Z,100195.19
2022-08-07T07:02:54.132Z,100204.00
2022-08-07T07:04:05.373Z,100196.81
2022-08-07T07:05:01.187Z,100192.13
2022-08-07T07:06:06.238Z,100196.11
2022-08-07T07:07:10.801Z,100196.84
2022-08-07T07:08:18.635Z,100171.71
2022-08-07T07:09:23.517Z,100198.54
2022-08-07T07:10:28.902Z,100193.39
2022-08-07T07:12:09.067Z,100193.77
2022-08-07T07:14:03.376Z,100201.63
2022-08-07T07:15:24.182Z,100199.69
2022-08-07T07:16:27.257Z,100204.91
2022-08-07T07:17:39.056Z,100194.33
2022-08-07T07:18:51.457Z,100195.61
2022-08-07T07:19:59.687Z,100201.55
2022-08-07T07:21:13.689Z,100192.64
2022-08-07T07:22:36.380Z,100199.36
2022-08-07T07:24:10.845Z,100202.95
2022-08-07T07:24:27.033Z,100199.73
2022-08-07T07:26:33.530Z,100200.55
2022-08-07T07:26:37.998Z,100196.30
2022-08-07T07:27:55.747Z,100206.02
2022-08-07T07:29:39.984Z,100203.50
2022-08-07T07:30:09.699Z,100204.36
2022-08-07T07:31:24.882Z,100206.27
2022-08-07T07:32:32.175Z,100204.00
2022-08-07T07:33:37.642Z,100206.41
2022-08-07T07:34:44.242Z,100211.01
2022-08-07T07:36:05.373Z,100211.05
2022-08-07T07:36:57.920Z,100211.92
2022-08-07T07:38:04.859Z,100211.14
2022-08-07T07:39:09.363Z,100211.34
2022-08-07T07:40:16.272Z,100209.39
2022-08-07T07:41:22.138Z,100216.62
2022-08-07T07:42:33.079Z,100212.23
2022-08-07T07:43:47.923Z,100220.16
2022-08-07T07:44:40.962Z,100210.83
2022-08-07T07:46:36.691Z,100219.73
2022-08-07T07:46:55.678Z,100214.75
2022-08-07T07:47:59.119Z,100214.44
2022-08-07T07:50:31.356Z,100214.87
2022-08-07T07:50:35.160Z,100210.53
2022-08-07T07:51:15.443Z,100212.95
2022-08-07T07:52:20.167Z,100211.25
2022-08-07T07:53:25.707Z,100214.03
2022-08-07T07:54:30.222Z,100214.39
2022-08-07T07:55:37.297Z,100214.14
2022-08-07T07:56:40.739Z,100212.41
2022-08-07T07:57:52.897Z,100212.31
2022-08-07T07:58:50.661Z,100217.81
2022-08-07T07:59:54.742Z,100211.91
2022-08-07T08:00:58.970Z,100217.99
2022-08-07T08:02:10.237Z,100221.38
2022-08-07T08:03:16.658Z,100213.67
2022-08-07T08:04:17.938Z,100213.17
2022-08-07T08:05:22.358Z,100202.97
2022-08-07T08:06:28.111Z,100208.50
2022-08-07T08:07:33.156Z,100210.64
2022-08-07T08:08:39.392Z,100218.05
2022-08-07T08:09:52.141Z,100216.91
2022-08-07T08:10:47.951Z,100213.02
2022-08-07T08:12:02.838Z,100206.89
2022-08-07T08:12:59.734Z,100208.48
2022-08-07T08:14:02.213Z,100210.44
2022-08-07T08:15:06.910Z,100207.82
2022-08-07T08:16:13.673Z,100216.75
2022-08-07T08:17:57.375Z,100207.82
2022-08-07T08:18:26.994Z,100207.82
2022-08-07T08:20:17.644Z,100207.16
2022-08-07T08:20:39.804Z,100210.37
2022-08-07T08:22:00.712Z,100200.75
2022-08-07T08:22:56.395Z,100216.73
2022-08-07T08:24:02.145Z,100214.25
2022-08-07T08:25:24.737Z,100214.20
2022-08-07T08:26:16.204Z,100211.31
2022-08-07T08:27:21.422Z,100213.95
2022-08-07T08:28:37.390Z,100208.69
2022-08-07T08:29:34.753Z,100205.93
2022-08-07T08:30:42.876Z,100204.02
2022-08-07T08:31:58.769Z,100198.23
2022-08-07T08:32:52.901Z,100197.23
2022-08-07T08:33:57.980Z,100202.48
2022-08-07T08:35:01.720Z,100198.17
2022-08-07T08:36:09.273Z,100195.81
2022-08-07T08:37:59.734Z,100196.97
2022-08-07T08:38:21.092Z,100192.50
2022-08-07T08:39:39.867Z,100193.61
2022-08-07T08:40:50.590Z,100191.83
2022-08-07T08:43:42.789Z,100182.40
2022-08-07T08:45:06.850Z,100183.14
2022-08-07T08:46:21.963Z,100180.43
2022-08-07T08:47:52.907Z,100177.57
2022-08-07T08:48:57.269Z,100185.20
2022-08-07T08:50:28.167Z,100180.76
2022-08-07T08:52:12.993Z,100185.94
2022-08-07T08:52:53.806Z,100186.80
2022-08-07T08:54:00.002Z,100190.65
2022-08-07T08:55:07.689Z,100190.17
2022-08-07T08:56:14.128Z,100188.22
2022-08-07T08:57:34.183Z,100183.93
2022-08-07T08:58:41.435Z,100182.50
2022-08-07T08:59:59.062Z,100186.64
2022-08-07T09:01:15.740Z,100186.68
2022-08-07T09:02:17.159Z,100182.27
2022-08-07T09:03:47.341Z,100190.23
2022-08-07T09:04:56.240Z,100195.28
2022-08-07T09:06:11.431Z,100199.87
2022-08-07T09:07:46.210Z,100203.27
2022-08-07T09:08:54.189Z,100218.17
2022-08-07T09:10:09.057Z,100218.60
2022-08-07T09:11:24.278Z,100232.28
2022-08-07T09:12:40.695Z,100227.08
2022-08-07T09:14:03.394Z,100236.08
2022-08-07T09:16:22.882Z,100237.18
2022-08-07T09:16:48.642Z,100225.30
2022-08-07T09:18:09.952Z,100231.47
2022-08-07T09:19:50.900Z,100235.38
2022-08-07T09:20:35.537Z,100226.72
2022-08-07T09:24:28.044Z,100213.72
2022-08-07T09:24:30.560Z,100214.42
2022-08-07T09:24:32.872Z,100224.09
2022-08-07T09:25:40.626Z,100243.73
2022-08-07T09:26:51.057Z,100254.87
2022-08-07T09:29:22.279Z,100251.67
2022-08-07T09:30:05.933Z,100258.05
2022-08-07T09:30:46.409Z,100251.67
2022-08-07T09:32:05.497Z,100252.27
2022-08-07T09:33:52.469Z,100240.32
2022-08-07T09:34:37.801Z,100237.58
2022-08-07T09:36:01.006Z,100232.52
2022-08-07T09:37:03.131Z,100225.68
2022-08-07T09:38:10.473Z,100214.91
2022-08-07T09:39:55.369Z,100221.48
2022-08-07T09:40:33.757Z,100214.08
2022-08-07T09:41:59.000Z,100210.93
2022-08-07T09:44:32.667Z,100191.54
2022-08-07T09:47:23.774Z,100194.06
2022-08-07T09:47:42.417Z,100202.17
2022-08-07T09:48:43.940Z,100193.19
2022-08-07T09:50:01.531Z,100197.72
2022-08-07T09:51:14.782Z,100205.05
2022-08-07T09:52:34.643Z,100215.53
2022-08-07T09:53:41.117Z,100226.55
2022-08-07T09:54:50.900Z,100241.68
2022-08-07T09:56:34.113Z,100245.95
2022-08-07T09:58:03.621Z,100249.90
2022-08-07T09:59:14.554Z,100252.55
2022-08-07T10:00:20.664Z,100247.48
2022-08-07T10:01:51.740Z,100249.55
2022-08-07T10:02:55.084Z,100242.88
2022-08-07T10:04:28.381Z,100238.66
2022-08-07T10:06:11.995Z,100239.15
2022-08-07T10:07:31.586Z,100225.18
2022-08-07T10:08:40.152Z,100231.81
2022-08-07T10:10:03.190Z,100234.80
2022-08-07T10:12:00.969Z,100238.36
2022-08-07T10:12:54.040Z,100250.20
2022-08-07T10:14:31.343Z,100244.08
2022-08-07T10:15:48.025Z,100246.44
2022-08-07T10:17:00.900Z,100247.19
2022-08-07T10:18:26.594Z,100233.23
2022-08-07T10:20:00.803Z,100226.19
2022-08-07T10:22:14.307Z,100218.35
2022-08-07T10:24:10.074Z,100194.34
2022-08-07T10:25:42.596Z,100204.95
2022-08-07T10:27:02.639Z,100183.83
2022-08-07T10:28:37.928Z,100188.66
2022-08-07T10:30:13.148Z,100186.59
2022-08-07T10:31:31.481Z,100181.91
2022-08-07T10:33:02.073Z,100180.13
2022-08-07T10:34:42.454Z,100185.02
2022-08-07T10:36:11.017Z,100185.40
2022-08-07T10:37:16.573Z,100191.88
2022-08-07T10:38:48.882Z,100180.77
2022-08-07T10:40:05.993Z,100181.22
2022-08-07T10:41:51.815Z,100183.23
2022-08-07T10:43:10.582Z,100190.69
2022-08-07T10:44:38.519Z,100188.63
2022-08-07T10:45:57.794Z,100190.94
2022-08-07T10:46:54.937Z,100189.20
2022-08-07T10:48:24.132Z,100184.31
2022-08-07T10:49:51.015Z,100188.28
2022-08-07T10:51:01.466Z,100173.30
2022-08-07T10:52:31.944Z,100186.70
2022-08-07T10:54:00.218Z,100181.94
2022-08-07T10:55:37.157Z,100193.89
2022-08-07T10:56:42.248Z,100149.00
2022-08-07T10:57:56.177Z,100178.39
2022-08-07T10:59:21.653Z,100186.86
2022-08-07T11:00:36.921Z,100194.01
2022-08-07T11:01:35.496Z,100179.27
2022-08-07T11:02:49.038Z,100183.28
2022-08-07T11:04:31.596Z,100181.72
2022-08-07T11:05:44.857Z,100181.75
2022-08-07T11:06:51.812Z,100187.09
2022-08-07T11:08:17.182Z,100181.02
2022-08-07T11:10:08.403Z,100187.28
2022-08-07T11:11:02.504Z,100180.02
2022-08-07T11:12:19.162Z,100177.30
2022-08-07T11:14:44.578Z,100177.00
2022-08-07T11:14:57.381Z,100177.65
2022-08-07T11:15:41.919Z,100171.84
2022-08-07T11:18:20.838Z,100168.56
2022-08-07T11:19:37.730Z,100168.48
2022-08-07T11:20:45.542Z,100171.61
2022-08-07T11:22:33.264Z,100167.57
2022-08-07T11:23:36.461Z,100164.66
2022-08-07T11:25:06.463Z,100166.19
2022-08-07T11:26:15.852Z,100172.97
2022-08-07T11:27:33.753Z,100162.52
2022-08-07T11:28:55.226Z,100168.95
2022-08-07T11:30:17.650Z,100165.11
2022-08-07T11:31:21.218Z,100160.86
2022-08-07T11:32:31.976Z,100162.78
2022-08-07T11:34:00.261Z,100159.30
2022-08-07T11:36:44.941Z,100144.56
2022-08-07T11:38:09.948Z,100148.43
2022-08-07T11:39:04.859Z,100150.50
2022-08-07T11:40:30.274Z,100140.28
2022-08-07T11:42:02.076Z,100150.13
2022-08-07T11:43:05.291Z,100151.91
2022-08-07T11:44:18.624Z,100153.95
2022-08-07T11:45:35.466Z,100166.49
2022-08-07T11:46:55.840Z,100164.27
2022-08-07T11:48:18.008Z,100163.31
2022-08-07T11:49:50.855Z,100164.25
2022-08-07T11:50:44.517Z,100161.98
2022-08-07T11:52:12.057Z,100169.12
2022-08-07T11:53:43.293Z,100178.00
2022-08-07T11:54:57.337Z,100170.91
2022-08-07T11:56:38.985Z,100175.69
2022-08-07T11:58:00.092Z,100162.13
2022-08-07T12:00:09.999Z,100148.81
2022-08-07T12:01:02.612Z,100143.02
2022-08-07T12:02:17.589Z,100140.23
2022-08-07T12:03:44.497Z,100145.28
2022-08-07T12:04:50.800Z,100150.90
2022-08-07T12:06:38.882Z,100153.61
2022-08-07T12:09:11.562Z,100153.20
2022-08-07T12:10:18.974Z,100161.44
2022-08-07T12:11:32.406Z,100166.41
2022-08-07T12:12:45.977Z,100173.34
2022-08-07T12:14:04.662Z,100174.27
2022-08-07T12:15:46.736Z,100186.59
2022-08-07T12:16:29.954Z,100185.75
2022-08-07T12:17:59.495Z,100184.60
2022-08-07T12:19:21.805Z,100175.08
2022-08-07T12:20:36.687Z,100181.98
2022-08-07T12:21:55.769Z,100172.73
2022-08-07T12:23:09.196Z,100180.41
2022-08-07T12:24:37.533Z,100180.92
2022-08-07T12:26:03.423Z,100185.91
2022-08-07T12:28:11.178Z,100190.02
2022-08-07T12:29:37.862Z,100198.45
2022-08-07T12:30:37.633Z,100196.11
2022-08-07T12:32:01.575Z,100186.42
2022-08-07T12:32:59.176Z,100181.17
2022-08-07T12:34:04.061Z,100189.38
2022-08-07T12:35:10.356Z,100192.45
2022-08-07T12:36:15.833Z,100200.33
2022-08-07T12:37:23.465Z,100195.03
2022-08-07T12:38:29.441Z,100198.50
2022-08-07T12:39:44.388Z,100201.75
2022-08-07T12:40:46.746Z,100207.98
2022-08-07T12:41:51.447Z,100218.06
2022-08-07T12:42:55.163Z,100210.89
2022-08-07T12:44:03.823Z,100223.80
2022-08-07T12:45:14.219Z,100223.17
2022-08-07T12:46:32.418Z,100230.59
2022-08-07T12:47:37.743Z,100233.31
2022-08-07T12:48:51.979Z,100229.55
2022-08-07T12:50:39.104Z,100235.31
2022-08-07T12:51:18.827Z,100233.38
2022-08-07T12:52:33.998Z,100233.20
2022-08-07T12:54:24.189Z,100229.80
2022-08-07T12:55:24.918Z,100235.84
2022-08-07T12:56:39.360Z,100230.02
2022-08-07T12:58:00.646Z,100234.88
2022-08-07T12:58:53.147Z,100227.62
2022-08-07T12:59:56.599Z,100224.08
2022-08-07T13:01:06.151Z,100223.65
2022-08-07T13:02:17.970Z,100221.58
2022-08-07T13:06:03.216Z,100221.23
2022-08-07T13:06:33.114Z,100216.02
2022-08-07T13:08:12.946Z,100219.53
2022-08-07T13:10:51.629Z,100222.62
2022-08-07T13:12:03.442Z,100228.58
2022-08-07T13:13:48.062Z,100232.27
2022-08-07T13:14:51.720Z,100237.05
2022-08-07T13:16:16.454Z,100235.35
2022-08-07T13:17:48.141Z,100244.99
2022-08-07T13:18:56.931Z,100240.78
2022-08-07T13:20:07.590Z,100244.95
2022-08-07T13:21:50.098Z,100242.12
2022-08-07T13:22:53.178Z,100244.83
2022-08-07T13:24:17.649Z,100242.12
2022-08-07T13:25:32.201Z,100244.49
2022-08-07T13:27:09.287Z,100244.48
2022-08-07T13:28:18.615Z,100248.22
2022-08-07T13:29:28.390Z,100249.72
2022-08-07T13:30:41.256Z,100249.72
2022-08-07T13:32:00.091Z,100252.27
2022-08-07T13:34:29.807Z,100262.99
2022-08-07T13:34:35.775Z,100257.38
2022-08-07T13:36:00.626Z,100265.52
2022-08-07T13:37:00.558Z,100272.97